KBCB/BCB METAR and TAF weather

Enter ICAO airport designator
Station Type Date Time Source
KBCB METAR 2022/06/28 14:55 UTC NOAA

KBCB 281455Z AUTO 35003KT 10SM CLR 22/09 A3032 RMK AO2 T02180091


Station Type Date Time Source
KBCB Decoded METAR 2022/06/28 14:55 UTC NOAA

Virginia Tech Airport, VA, United States (KBCB) 37-13N 080-25W
Jun 28, 2022 - 10:55 AM EDT / 2022.06.28 1455 UTC
Wind: from the N (350 degrees) at 3 MPH (3 KT):0
Visibility: 10 mile(s):0
Sky conditions: clear
Temperature: 71.2 F (21.8 C)
Dew Point: 48.4 F (9.1 C)
Relative Humidity: 44%
Pressure (altimeter): 30.32 in. Hg (1026 hPa)
ob: KBCB 281455Z AUTO 35003KT 10SM CLR 22/09 A3032 RMK AO2 T02180091
cycle: 15

Station Type Date Time Source
KBCB TAF 2022/06/28 12:22 UTC NOAA

TAF KBCB 281120Z 2812/2912 00000KT P6SM SKC
FM281600 09004KT P6SM FEW050
FM290000 15003KT P6SM BKN250

Example: see airport list